sensor_id;sensor_type;location;lat;lon;timestamp;P1;P2;P0
56175;PMS5003;63065;51.082;17.016;2023-05-21T00:02:06;64;63;
56175;PMS5003;63065;51.082;17.016;2023-05-21T00:04:30;62;56;
56175;PMS5003;63065;51.082;17.016;2023-05-21T00:06:56;61;55;
56175;PMS5003;63065;51.082;17.016;2023-05-21T00:09:21;66;59;
56175;PMS5003;63065;51.082;17.016;2023-05-21T00:11:47;63;57;
56175;PMS5003;63065;51.082;17.016;2023-05-21T00:14:12;58;54;
56175;PMS5003;63065;51.082;17.016;2023-05-21T00:16:37;60;58;
56175;PMS5003;63065;51.082;17.016;2023-05-21T00:19:03;60;53;
56175;PMS5003;63065;51.082;17.016;2023-05-21T00:21:28;57;54;
56175;PMS5003;63065;51.082;17.016;2023-05-21T00:23:54;55;52;
56175;PMS5003;63065;51.082;17.016;2023-05-21T00:26:19;56;56;
56175;PMS5003;63065;51.082;17.016;2023-05-21T00:28:44;50;50;
56175;PMS5003;63065;51.082;17.016;2023-05-21T00:31:10;57;53;
56175;PMS5003;63065;51.082;17.016;2023-05-21T00:33:36;60;56;
56175;PMS5003;63065;51.082;17.016;2023-05-21T00:36:01;51;49;
56175;PMS5003;63065;51.082;17.016;2023-05-21T00:38:27;55;52;
56175;PMS5003;63065;51.082;17.016;2023-05-21T00:40:53;50;46;
56175;PMS5003;63065;51.082;17.016;2023-05-21T00:43:18;58;53;
56175;PMS5003;63065;51.082;17.016;2023-05-21T00:45:43;61;57;
56175;PMS5003;63065;51.082;17.016;2023-05-21T00:48:08;53;50;
56175;PMS5003;63065;51.082;17.016;2023-05-21T00:50:34;53;51;
56175;PMS5003;63065;51.082;17.016;2023-05-21T00:52:59;58;55;
56175;PMS5003;63065;51.082;17.016;2023-05-21T00:55:25;67;62;
56175;PMS5003;63065;51.082;17.016;2023-05-21T00:57:50;59;54;
56175;PMS5003;63065;51.082;17.016;2023-05-21T01:00:15;54;49;
56175;PMS5003;63065;51.082;17.016;2023-05-21T01:02:41;51;49;
56175;PMS5003;63065;51.082;17.016;2023-05-21T01:05:07;63;60;
56175;PMS5003;63065;51.082;17.016;2023-05-21T01:07:33;54;53;
56175;PMS5003;63065;51.082;17.016;2023-05-21T01:09:58;55;51;
56175;PMS5003;63065;51.082;17.016;2023-05-21T01:12:24;55;51;
56175;PMS5003;63065;51.082;17.016;2023-05-21T01:14:50;60;55;
56175;PMS5003;63065;51.082;17.016;2023-05-21T01:17:15;58;51;
56175;PMS5003;63065;51.082;17.016;2023-05-21T01:19:40;55;53;
56175;PMS5003;63065;51.082;17.016;2023-05-21T01:22:06;60;53;
56175;PMS5003;63065;51.082;17.016;2023-05-21T01:24:31;58;55;
56175;PMS5003;63065;51.082;17.016;2023-05-21T01:26:57;61;56;
56175;PMS5003;63065;51.082;17.016;2023-05-21T01:29:22;59;56;
56175;PMS5003;63065;51.082;17.016;2023-05-21T01:31:52;58;56;
56175;PMS5003;63065;51.082;17.016;2023-05-21T01:34:13;61;57;
56175;PMS5003;63065;51.082;17.016;2023-05-21T01:36:39;59;55;
56175;PMS5003;63065;51.082;17.016;2023-05-21T01:39:05;57;55;
56175;PMS5003;63065;51.082;17.016;2023-05-21T01:41:30;59;54;
56175;PMS5003;63065;51.082;17.016;2023-05-21T01:43:54;57;54;
56175;PMS5003;63065;51.082;17.016;2023-05-21T01:46:21;56;52;
56175;PMS5003;63065;51.082;17.016;2023-05-21T01:48:44;54;51;
56175;PMS5003;63065;51.082;17.016;2023-05-21T01:51:10;55;52;
56175;PMS5003;63065;51.082;17.016;2023-05-21T01:53:35;56;53;
56175;PMS5003;63065;51.082;17.016;2023-05-21T01:56:01;55;51;
56175;PMS5003;63065;51.082;17.016;2023-05-21T01:58:26;57;54;
56175;PMS5003;63065;51.082;17.016;2023-05-21T02:00:52;57;52;
56175;PMS5003;63065;51.082;17.016;2023-05-21T02:03:18;55;54;
56175;PMS5003;63065;51.082;17.016;2023-05-21T02:05:43;61;54;
56175;PMS5003;63065;51.082;17.016;2023-05-21T02:08:08;53;49;
56175;PMS5003;63065;51.082;17.016;2023-05-21T02:10:34;58;52;
56175;PMS5003;63065;51.082;17.016;2023-05-21T02:13:00;55;50;
56175;PMS5003;63065;51.082;17.016;2023-05-21T02:15:25;57;50;
56175;PMS5003;63065;51.082;17.016;2023-05-21T02:17:50;58;55;
56175;PMS5003;63065;51.082;17.016;2023-05-21T02:20:16;63;55;
56175;PMS5003;63065;51.082;17.016;2023-05-21T02:22:42;51;47;
56175;PMS5003;63065;51.082;17.016;2023-05-21T02:25:08;51;49;
56175;PMS5003;63065;51.082;17.016;2023-05-21T02:27:33;59;55;
56175;PMS5003;63065;51.082;17.016;2023-05-21T02:29:58;53;49;
56175;PMS5003;63065;51.082;17.016;2023-05-21T02:32:24;55;54;
56175;PMS5003;63065;51.082;17.016;2023-05-21T02:34:49;64;55;
56175;PMS5003;63065;51.082;17.016;2023-05-21T02:37:15;56;53;
56175;PMS5003;63065;51.082;17.016;2023-05-21T02:39:40;53;48;
56175;PMS5003;63065;51.082;17.016;2023-05-21T02:42:06;53;49;
56175;PMS5003;63065;51.082;17.016;2023-05-21T02:44:32;54;50;
56175;PMS5003;63065;51.082;17.016;2023-05-21T02:46:57;53;49;
56175;PMS5003;63065;51.082;17.016;2023-05-21T02:49:23;55;53;
56175;PMS5003;63065;51.082;17.016;2023-05-21T02:51:48;52;50;
56175;PMS5003;63065;51.082;17.016;2023-05-21T02:54:13;48;46;
56175;PMS5003;63065;51.082;17.016;2023-05-21T02:56:39;50;48;
56175;PMS5003;63065;51.082;17.016;2023-05-21T02:59:05;49;47;
56175;PMS5003;63065;51.082;17.016;2023-05-21T03:01:30;56;50;
56175;PMS5003;63065;51.082;17.016;2023-05-21T03:03:55;54;48;
56175;PMS5003;63065;51.082;17.016;2023-05-21T03:06:20;54;50;
56175;PMS5003;63065;51.082;17.016;2023-05-21T03:08:46;47;45;
56175;PMS5003;63065;51.082;17.016;2023-05-21T03:11:12;51;48;
56175;PMS5003;63065;51.082;17.016;2023-05-21T03:13:38;55;50;
56175;PMS5003;63065;51.082;17.016;2023-05-21T03:16:03;44;41;
56175;PMS5003;63065;51.082;17.016;2023-05-21T03:18:28;50;49;
56175;PMS5003;63065;51.082;17.016;2023-05-21T03:20:54;43;42;
56175;PMS5003;63065;51.082;17.016;2023-05-21T03:23:20;46;45;
56175;PMS5003;63065;51.082;17.016;2023-05-21T03:25:55;54;49;
56175;PMS5003;63065;51.082;17.016;2023-05-21T03:28:10;52;49;
56175;PMS5003;63065;51.082;17.016;2023-05-21T03:30:36;47;44;
56175;PMS5003;63065;51.082;17.016;2023-05-21T03:33:01;46;43;
56175;PMS5003;63065;51.082;17.016;2023-05-21T03:35:26;44;42;
56175;PMS5003;63065;51.082;17.016;2023-05-21T03:37:52;48;46;
56175;PMS5003;63065;51.082;17.016;2023-05-21T03:40:17;48;43;
56175;PMS5003;63065;51.082;17.016;2023-05-21T03:42:43;43;42;
56175;PMS5003;63065;51.082;17.016;2023-05-21T03:45:09;48;43;
56175;PMS5003;63065;51.082;17.016;2023-05-21T03:47:34;49;45;
56175;PMS5003;63065;51.082;17.016;2023-05-21T03:50:00;48;44;
56175;PMS5003;63065;51.082;17.016;2023-05-21T03:52:25;45;41;
56175;PMS5003;63065;51.082;17.016;2023-05-21T03:54:51;54;51;
56175;PMS5003;63065;51.082;17.016;2023-05-21T03:57:16;43;43;
56175;PMS5003;63065;51.082;17.016;2023-05-21T03:59:41;49;47;
56175;PMS5003;63065;51.082;17.016;2023-05-21T04:02:07;48;46;
56175;PMS5003;63065;51.082;17.016;2023-05-21T04:04:32;45;41;
56175;PMS5003;63065;51.082;17.016;2023-05-21T04:06:58;48;45;
56175;PMS5003;63065;51.082;17.016;2023-05-21T04:09:23;48;39;
56175;PMS5003;63065;51.082;17.016;2023-05-21T04:11:49;46;45;
56175;PMS5003;63065;51.082;17.016;2023-05-21T04:14:14;51;47;
56175;PMS5003;63065;51.082;17.016;2023-05-21T04:16:40;56;49;
56175;PMS5003;63065;51.082;17.016;2023-05-21T04:19:05;47;45;
56175;PMS5003;63065;51.082;17.016;2023-05-21T04:21:30;55;46;
56175;PMS5003;63065;51.082;17.016;2023-05-21T04:23:55;52;48;
56175;PMS5003;63065;51.082;17.016;2023-05-21T04:26:20;45;44;
56175;PMS5003;63065;51.082;17.016;2023-05-21T04:28:46;46;46;
56175;PMS5003;63065;51.082;17.016;2023-05-21T04:31:11;50;45;
56175;PMS5003;63065;51.082;17.016;2023-05-21T04:33:37;49;45;
56175;PMS5003;63065;51.082;17.016;2023-05-21T04:36:02;51;45;
56175;PMS5003;63065;51.082;17.016;2023-05-21T04:38:27;38;38;
56175;PMS5003;63065;51.082;17.016;2023-05-21T04:40:53;46;44;
56175;PMS5003;63065;51.082;17.016;2023-05-21T04:43:19;46;44;
56175;PMS5003;63065;51.082;17.016;2023-05-21T04:45:44;46;42;
56175;PMS5003;63065;51.082;17.016;2023-05-21T04:48:10;42;39;
56175;PMS5003;63065;51.082;17.016;2023-05-21T04:50:35;45;36;
56175;PMS5003;63065;51.082;17.016;2023-05-21T04:53:01;43;41;
56175;PMS5003;63065;51.082;17.016;2023-05-21T04:55:26;43;38;
56175;PMS5003;63065;51.082;17.016;2023-05-21T04:57:52;42;41;
56175;PMS5003;63065;51.082;17.016;2023-05-21T05:00:17;46;43;
56175;PMS5003;63065;51.082;17.016;2023-05-21T05:02:43;41;38;
56175;PMS5003;63065;51.082;17.016;2023-05-21T05:05:08;42;39;
56175;PMS5003;63065;51.082;17.016;2023-05-21T05:07:33;37;35;
56175;PMS5003;63065;51.082;17.016;2023-05-21T05:09:59;37;34;
56175;PMS5003;63065;51.082;17.016;2023-05-21T05:12:25;44;44;
56175;PMS5003;63065;51.082;17.016;2023-05-21T05:14:50;40;38;
56175;PMS5003;63065;51.082;17.016;2023-05-21T05:17:15;45;43;
56175;PMS5003;63065;51.082;17.016;2023-05-21T05:19:41;43;37;
56175;PMS5003;63065;51.082;17.016;2023-05-21T05:22:06;38;37;
56175;PMS5003;63065;51.082;17.016;2023-05-21T05:24:31;43;41;
56175;PMS5003;63065;51.082;17.016;2023-05-21T05:26:57;43;37;
56175;PMS5003;63065;51.082;17.016;2023-05-21T05:29:23;42;39;
56175;PMS5003;63065;51.082;17.016;2023-05-21T05:31:48;43;40;
56175;PMS5003;63065;51.082;17.016;2023-05-21T05:34:13;46;41;
56175;PMS5003;63065;51.082;17.016;2023-05-21T05:36:38;40;36;
56175;PMS5003;63065;51.082;17.016;2023-05-21T05:39:04;36;33;
56175;PMS5003;63065;51.082;17.016;2023-05-21T05:41:29;42;40;
56175;PMS5003;63065;51.082;17.016;2023-05-21T05:43:54;39;38;
56175;PMS5003;63065;51.082;17.016;2023-05-21T05:46:20;45;42;
56175;PMS5003;63065;51.082;17.016;2023-05-21T05:48:45;36;34;
56175;PMS5003;63065;51.082;17.016;2023-05-21T05:51:10;42;39;
56175;PMS5003;63065;51.082;17.016;2023-05-21T05:53:35;45;41;
56175;PMS5003;63065;51.082;17.016;2023-05-21T05:56:01;44;36;
56175;PMS5003;63065;51.082;17.016;2023-05-21T05:58:27;36;30;
56175;PMS5003;63065;51.082;17.016;2023-05-21T06:00:52;41;39;
56175;PMS5003;63065;51.082;17.016;2023-05-21T06:03:17;32;32;
56175;PMS5003;63065;51.082;17.016;2023-05-21T06:05:43;40;37;
56175;PMS5003;63065;51.082;17.016;2023-05-21T06:08:08;41;37;
56175;PMS5003;63065;51.082;17.016;2023-05-21T06:10:34;37;36;
56175;PMS5003;63065;51.082;17.016;2023-05-21T06:12:59;41;39;
56175;PMS5003;63065;51.082;17.016;2023-05-21T06:15:25;37;36;
56175;PMS5003;63065;51.082;17.016;2023-05-21T06:17:50;35;34;
56175;PMS5003;63065;51.082;17.016;2023-05-21T06:20:16;37;37;
56175;PMS5003;63065;51.082;17.016;2023-05-21T06:22:42;42;38;
56175;PMS5003;63065;51.082;17.016;2023-05-21T06:25:07;34;33;
56175;PMS5003;63065;51.082;17.016;2023-05-21T06:27:32;35;33;
56175;PMS5003;63065;51.082;17.016;2023-05-21T06:29:58;35;32;
56175;PMS5003;63065;51.082;17.016;2023-05-21T06:32:24;34;33;
56175;PMS5003;63065;51.082;17.016;2023-05-21T06:34:49;32;28;
56175;PMS5003;63065;51.082;17.016;2023-05-21T06:37:17;37;37;
56175;PMS5003;63065;51.082;17.016;2023-05-21T06:39:40;33;31;
56175;PMS5003;63065;51.082;17.016;2023-05-21T06:42:05;39;34;
56175;PMS5003;63065;51.082;17.016;2023-05-21T06:44:31;28;28;
56175;PMS5003;63065;51.082;17.016;2023-05-21T06:46:56;35;32;
56175;PMS5003;63065;51.082;17.016;2023-05-21T06:49:26;33;31;
56175;PMS5003;63065;51.082;17.016;2023-05-21T06:51:46;34;30;
56175;PMS5003;63065;51.082;17.016;2023-05-21T06:54:12;33;30;
56175;PMS5003;63065;51.082;17.016;2023-05-21T06:56:37;31;31;
56175;PMS5003;63065;51.082;17.016;2023-05-21T06:59:03;36;35;
56175;PMS5003;63065;51.082;17.016;2023-05-21T07:01:28;34;29;
56175;PMS5003;63065;51.082;17.016;2023-05-21T07:03:54;29;28;
56175;PMS5003;63065;51.082;17.016;2023-05-21T07:06:19;32;30;
56175;PMS5003;63065;51.082;17.016;2023-05-21T07:08:44;34;34;
56175;PMS5003;63065;51.082;17.016;2023-05-21T07:11:10;31;30;
56175;PMS5003;63065;51.082;17.016;2023-05-21T07:13:35;32;28;
56175;PMS5003;63065;51.082;17.016;2023-05-21T07:16:01;30;28;
56175;PMS5003;63065;51.082;17.016;2023-05-21T07:18:26;38;36;
56175;PMS5003;63065;51.082;17.016;2023-05-21T07:20:52;29;28;
56175;PMS5003;63065;51.082;17.016;2023-05-21T07:23:18;34;28;
56175;PMS5003;63065;51.082;17.016;2023-05-21T07:25:43;38;37;
56175;PMS5003;63065;51.082;17.016;2023-05-21T07:28:08;32;30;
56175;PMS5003;63065;51.082;17.016;2023-05-21T07:30:33;38;35;
56175;PMS5003;63065;51.082;17.016;2023-05-21T07:32:59;35;35;
56175;PMS5003;63065;51.082;17.016;2023-05-21T07:35:24;30;29;
56175;PMS5003;63065;51.082;17.016;2023-05-21T07:37:50;34;32;
56175;PMS5003;63065;51.082;17.016;2023-05-21T07:40:15;34;32;
56175;PMS5003;63065;51.082;17.016;2023-05-21T07:45:07;31;30;
56175;PMS5003;63065;51.082;17.016;2023-05-21T07:47:32;36;33;
56175;PMS5003;63065;51.082;17.016;2023-05-21T07:49:57;26;26;
56175;PMS5003;63065;51.082;17.016;2023-05-21T07:52:23;32;32;
56175;PMS5003;63065;51.082;17.016;2023-05-21T07:54:48;30;27;
56175;PMS5003;63065;51.082;17.016;2023-05-21T07:57:13;25;25;
56175;PMS5003;63065;51.082;17.016;2023-05-21T07:59:38;29;27;
56175;PMS5003;63065;51.082;17.016;2023-05-21T08:02:04;27;26;
56175;PMS5003;63065;51.082;17.016;2023-05-21T08:04:29;27;27;
56175;PMS5003;63065;51.082;17.016;2023-05-21T08:06:54;30;28;
56175;PMS5003;63065;51.082;17.016;2023-05-21T08:09:19;32;29;
56175;PMS5003;63065;51.082;17.016;2023-05-21T08:11:45;34;32;
56175;PMS5003;63065;51.082;17.016;2023-05-21T08:14:10;27;27;
56175;PMS5003;63065;51.082;17.016;2023-05-21T08:16:35;27;26;
56175;PMS5003;63065;51.082;17.016;2023-05-21T08:19:01;29;28;
56175;PMS5003;63065;51.082;17.016;2023-05-21T08:21:26;33;32;
56175;PMS5003;63065;51.082;17.016;2023-05-21T08:23:52;26;24;
56175;PMS5003;63065;51.082;17.016;2023-05-21T08:26:17;29;29;
56175;PMS5003;63065;51.082;17.016;2023-05-21T08:28:42;33;31;
56175;PMS5003;63065;51.082;17.016;2023-05-21T08:31:08;31;29;
56175;PMS5003;63065;51.082;17.016;2023-05-21T08:33:34;28;27;
56175;PMS5003;63065;51.082;17.016;2023-05-21T08:35:58;30;29;
56175;PMS5003;63065;51.082;17.016;2023-05-21T08:38:24;28;27;
56175;PMS5003;63065;51.082;17.016;2023-05-21T08:40:50;35;30;
56175;PMS5003;63065;51.082;17.016;2023-05-21T08:43:15;31;29;
56175;PMS5003;63065;51.082;17.016;2023-05-21T08:45:41;26;24;
56175;PMS5003;63065;51.082;17.016;2023-05-21T08:48:06;27;27;
56175;PMS5003;63065;51.082;17.016;2023-05-21T08:50:32;28;27;
56175;PMS5003;63065;51.082;17.016;2023-05-21T08:52:58;24;23;
56175;PMS5003;63065;51.082;17.016;2023-05-21T08:55:23;29;28;
56175;PMS5003;63065;51.082;17.016;2023-05-21T08:57:49;32;28;
56175;PMS5003;63065;51.082;17.016;2023-05-21T09:00:14;26;25;
56175;PMS5003;63065;51.082;17.016;2023-05-21T09:02:39;24;24;
56175;PMS5003;63065;51.082;17.016;2023-05-21T09:05:05;27;27;
56175;PMS5003;63065;51.082;17.016;2023-05-21T09:07:30;19;19;
56175;PMS5003;63065;51.082;17.016;2023-05-21T09:09:56;24;23;
56175;PMS5003;63065;51.082;17.016;2023-05-21T09:12:21;27;24;
56175;PMS5003;63065;51.082;17.016;2023-05-21T09:14:46;22;22;
56175;PMS5003;63065;51.082;17.016;2023-05-21T09:17:12;24;20;
56175;PMS5003;63065;51.082;17.016;2023-05-21T09:19:36;22;19;
56175;PMS5003;63065;51.082;17.016;2023-05-21T09:22:02;20;18;
56175;PMS5003;63065;51.082;17.016;2023-05-21T09:24:29;21;20;
56175;PMS5003;63065;51.082;17.016;2023-05-21T09:26:53;22;21;
56175;PMS5003;63065;51.082;17.016;2023-05-21T09:29:18;22;21;
56175;PMS5003;63065;51.082;17.016;2023-05-21T09:31:43;22;21;
56175;PMS5003;63065;51.082;17.016;2023-05-21T09:34:09;15;15;
56175;PMS5003;63065;51.082;17.016;2023-05-21T09:36:36;22;20;
56175;PMS5003;63065;51.082;17.016;2023-05-21T09:38:59;21;21;
56175;PMS5003;63065;51.082;17.016;2023-05-21T09:43:50;19;19;
56175;PMS5003;63065;51.082;17.016;2023-05-21T09:46:15;21;20;
56175;PMS5003;63065;51.082;17.016;2023-05-21T09:48:41;24;23;
56175;PMS5003;63065;51.082;17.016;2023-05-21T09:51:08;20;19;
56175;PMS5003;63065;51.082;17.016;2023-05-21T09:53:32;22;22;
56175;PMS5003;63065;51.082;17.016;2023-05-21T09:55:58;20;19;
56175;PMS5003;63065;51.082;17.016;2023-05-21T09:58:23;27;24;
56175;PMS5003;63065;51.082;17.016;2023-05-21T10:00:48;19;19;
56175;PMS5003;63065;51.082;17.016;2023-05-21T10:03:14;18;18;
56175;PMS5003;63065;51.082;17.016;2023-05-21T10:05:39;18;18;
56175;PMS5003;63065;51.082;17.016;2023-05-21T10:08:04;22;20;
56175;PMS5003;63065;51.082;17.016;2023-05-21T10:10:30;23;21;
56175;PMS5003;63065;51.082;17.016;2023-05-21T10:12:57;21;19;
56175;PMS5003;63065;51.082;17.016;2023-05-21T10:15:22;18;18;
56175;PMS5003;63065;51.082;17.016;2023-05-21T10:17:46;22;21;
56175;PMS5003;63065;51.082;17.016;2023-05-21T10:20:11;16;16;
56175;PMS5003;63065;51.082;17.016;2023-05-21T10:22:37;20;19;
56175;PMS5003;63065;51.082;17.016;2023-05-21T10:25:03;24;20;
56175;PMS5003;63065;51.082;17.016;2023-05-21T10:27:28;18;16;
56175;PMS5003;63065;51.082;17.016;2023-05-21T10:29:53;15;15;
56175;PMS5003;63065;51.082;17.016;2023-05-21T10:32:19;19;17;
56175;PMS5003;63065;51.082;17.016;2023-05-21T10:34:44;20;18;
56175;PMS5003;63065;51.082;17.016;2023-05-21T10:37:09;21;18;
56175;PMS5003;63065;51.082;17.016;2023-05-21T10:39:35;19;19;
56175;PMS5003;63065;51.082;17.016;2023-05-21T10:42:06;19;17;
56175;PMS5003;63065;51.082;17.016;2023-05-21T10:44:29;16;16;
56175;PMS5003;63065;51.082;17.016;2023-05-21T10:46:56;17;15;
56175;PMS5003;63065;51.082;17.016;2023-05-21T10:49:28;17;15;
56175;PMS5003;63065;51.082;17.016;2023-05-21T10:51:44;18;16;
56175;PMS5003;63065;51.082;17.016;2023-05-21T10:56:36;16;16;
56175;PMS5003;63065;51.082;17.016;2023-05-21T10:59:03;18;18;
56175;PMS5003;63065;51.082;17.016;2023-05-21T11:01:25;20;19;
56175;PMS5003;63065;51.082;17.016;2023-05-21T11:03:50;16;16;
56175;PMS5003;63065;51.082;17.016;2023-05-21T11:08:41;18;17;
56175;PMS5003;63065;51.082;17.016;2023-05-21T11:11:07;15;15;
56175;PMS5003;63065;51.082;17.016;2023-05-21T11:18:23;14;14;
56175;PMS5003;63065;51.082;17.016;2023-05-21T11:20:49;16;16;
56175;PMS5003;63065;51.082;17.016;2023-05-21T11:23:13;14;14;
56175;PMS5003;63065;51.082;17.016;2023-05-21T11:25:39;14;14;
56175;PMS5003;63065;51.082;17.016;2023-05-21T11:28:05;15;15;
56175;PMS5003;63065;51.082;17.016;2023-05-21T11:30:30;16;15;
56175;PMS5003;63065;51.082;17.016;2023-05-21T11:35:21;11;11;
56175;PMS5003;63065;51.082;17.016;2023-05-21T11:37:46;16;14;
56175;PMS5003;63065;51.082;17.016;2023-05-21T11:40:16;13;13;
56175;PMS5003;63065;51.082;17.016;2023-05-21T11:42:37;12;11;
56175;PMS5003;63065;51.082;17.016;2023-05-21T11:45:02;13;13;
56175;PMS5003;63065;51.082;17.016;2023-05-21T11:47:28;16;14;
56175;PMS5003;63065;51.082;17.016;2023-05-21T11:49:54;14;12;
56175;PMS5003;63065;51.082;17.016;2023-05-21T11:52:19;12;12;
56175;PMS5003;63065;51.082;17.016;2023-05-21T11:54:45;16;15;
56175;PMS5003;63065;51.082;17.016;2023-05-21T11:57:11;13;13;
56175;PMS5003;63065;51.082;17.016;2023-05-21T11:59:36;13;13;
56175;PMS5003;63065;51.082;17.016;2023-05-21T12:02:02;11;11;
56175;PMS5003;63065;51.082;17.016;2023-05-21T12:04:28;22;19;
56175;PMS5003;63065;51.082;17.016;2023-05-21T12:06:52;14;14;
56175;PMS5003;63065;51.082;17.016;2023-05-21T12:09:18;14;13;
56175;PMS5003;63065;51.082;17.016;2023-05-21T12:11:43;13;13;
56175;PMS5003;63065;51.082;17.016;2023-05-21T12:14:09;17;17;
56175;PMS5003;63065;51.082;17.016;2023-05-21T12:16:35;13;13;
56175;PMS5003;63065;51.082;17.016;2023-05-21T12:19:01;13;13;
56175;PMS5003;63065;51.082;17.016;2023-05-21T12:21:27;14;13;
56175;PMS5003;63065;51.082;17.016;2023-05-21T12:23:52;14;13;
56175;PMS5003;63065;51.082;17.016;2023-05-21T12:26:17;15;13;
56175;PMS5003;63065;51.082;17.016;2023-05-21T12:28:43;17;15;
56175;PMS5003;63065;51.082;17.016;2023-05-21T12:31:13;14;14;
56175;PMS5003;63065;51.082;17.016;2023-05-21T12:33:35;13;13;
56175;PMS5003;63065;51.082;17.016;2023-05-21T12:36:00;14;13;
56175;PMS5003;63065;51.082;17.016;2023-05-21T12:38:28;14;14;
56175;PMS5003;63065;51.082;17.016;2023-05-21T12:40:51;14;14;
56175;PMS5003;63065;51.082;17.016;2023-05-21T12:43:17;15;14;
56175;PMS5003;63065;51.082;17.016;2023-05-21T12:45:43;16;16;
56175;PMS5003;63065;51.082;17.016;2023-05-21T12:48:08;13;13;
56175;PMS5003;63065;51.082;17.016;2023-05-21T12:50:33;15;15;
56175;PMS5003;63065;51.082;17.016;2023-05-21T12:52:59;14;14;
56175;PMS5003;63065;51.082;17.016;2023-05-21T12:55:24;15;15;
56175;PMS5003;63065;51.082;17.016;2023-05-21T12:57:52;14;12;
56175;PMS5003;63065;51.082;17.016;2023-05-21T13:00:15;14;13;
56175;PMS5003;63065;51.082;17.016;2023-05-21T13:02:41;16;16;
56175;PMS5003;63065;51.082;17.016;2023-05-21T13:05:07;13;13;
56175;PMS5003;63065;51.082;17.016;2023-05-21T13:07:33;19;16;
56175;PMS5003;63065;51.082;17.016;2023-05-21T13:09:58;19;16;
56175;PMS5003;63065;51.082;17.016;2023-05-21T13:12:24;18;13;
56175;PMS5003;63065;51.082;17.016;2023-05-21T13:14:49;14;14;
56175;PMS5003;63065;51.082;17.016;2023-05-21T13:17:14;17;13;
56175;PMS5003;63065;51.082;17.016;2023-05-21T13:19:40;14;14;
56175;PMS5003;63065;51.082;17.016;2023-05-21T13:22:05;15;15;
56175;PMS5003;63065;51.082;17.016;2023-05-21T13:24:31;15;12;
56175;PMS5003;63065;51.082;17.016;2023-05-21T13:26:57;12;12;
56175;PMS5003;63065;51.082;17.016;2023-05-21T13:29:23;17;15;
56175;PMS5003;63065;51.082;17.016;2023-05-21T13:31:48;14;14;
56175;PMS5003;63065;51.082;17.016;2023-05-21T13:34:14;12;12;
56175;PMS5003;63065;51.082;17.016;2023-05-21T13:36:40;13;13;
56175;PMS5003;63065;51.082;17.016;2023-05-21T13:39:05;13;12;
56175;PMS5003;63065;51.082;17.016;2023-05-21T13:41:31;14;14;
56175;PMS5003;63065;51.082;17.016;2023-05-21T13:43:57;17;17;
56175;PMS5003;63065;51.082;17.016;2023-05-21T13:46:27;14;13;
56175;PMS5003;63065;51.082;17.016;2023-05-21T13:48:47;15;15;
56175;PMS5003;63065;51.082;17.016;2023-05-21T13:51:13;15;14;
56175;PMS5003;63065;51.082;17.016;2023-05-21T13:53:39;13;13;
56175;PMS5003;63065;51.082;17.016;2023-05-21T13:56:05;15;14;
56175;PMS5003;63065;51.082;17.016;2023-05-21T13:58:30;14;13;
56175;PMS5003;63065;51.082;17.016;2023-05-21T14:00:55;14;14;
56175;PMS5003;63065;51.082;17.016;2023-05-21T14:03:21;13;12;
56175;PMS5003;63065;51.082;17.016;2023-05-21T14:05:46;13;13;
56175;PMS5003;63065;51.082;17.016;2023-05-21T14:08:12;12;12;
56175;PMS5003;63065;51.082;17.016;2023-05-21T14:10:38;12;12;
56175;PMS5003;63065;51.082;17.016;2023-05-21T14:13:03;13;13;
56175;PMS5003;63065;51.082;17.016;2023-05-21T14:15:29;13;13;
56175;PMS5003;63065;51.082;17.016;2023-05-21T14:17:55;11;10;
56175;PMS5003;63065;51.082;17.016;2023-05-21T14:20:21;14;14;
56175;PMS5003;63065;51.082;17.016;2023-05-21T14:22:46;13;13;
56175;PMS5003;63065;51.082;17.016;2023-05-21T14:25:12;15;15;
56175;PMS5003;63065;51.082;17.016;2023-05-21T14:27:37;12;10;
56175;PMS5003;63065;51.082;17.016;2023-05-21T14:30:03;12;12;
56175;PMS5003;63065;51.082;17.016;2023-05-21T14:32:28;15;15;
56175;PMS5003;63065;51.082;17.016;2023-05-21T14:34:54;13;13;
56175;PMS5003;63065;51.082;17.016;2023-05-21T14:37:20;17;16;
56175;PMS5003;63065;51.082;17.016;2023-05-21T14:39:45;13;13;
56175;PMS5003;63065;51.082;17.016;2023-05-21T14:42:11;15;13;
56175;PMS5003;63065;51.082;17.016;2023-05-21T14:44:36;12;12;
56175;PMS5003;63065;51.082;17.016;2023-05-21T14:47:02;13;13;
56175;PMS5003;63065;51.082;17.016;2023-05-21T14:49:28;18;14;
56175;PMS5003;63065;51.082;17.016;2023-05-21T14:51:53;13;13;
56175;PMS5003;63065;51.082;17.016;2023-05-21T14:54:18;15;15;
56175;PMS5003;63065;51.082;17.016;2023-05-21T14:56:44;13;13;
56175;PMS5003;63065;51.082;17.016;2023-05-21T14:59:09;12;12;
56175;PMS5003;63065;51.082;17.016;2023-05-21T15:01:35;16;15;
56175;PMS5003;63065;51.082;17.016;2023-05-21T15:04:00;11;11;
56175;PMS5003;63065;51.082;17.016;2023-05-21T15:06:26;12;11;
56175;PMS5003;63065;51.082;17.016;2023-05-21T15:08:51;19;16;
56175;PMS5003;63065;51.082;17.016;2023-05-21T15:11:17;10;9;
56175;PMS5003;63065;51.082;17.016;2023-05-21T15:13:42;15;14;
56175;PMS5003;63065;51.082;17.016;2023-05-21T15:16:08;14;14;
56175;PMS5003;63065;51.082;17.016;2023-05-21T15:18:33;10;10;
56175;PMS5003;63065;51.082;17.016;2023-05-21T15:20:59;13;12;
56175;PMS5003;63065;51.082;17.016;2023-05-21T15:23:24;12;11;
56175;PMS5003;63065;51.082;17.016;2023-05-21T15:25:50;12;12;
56175;PMS5003;63065;51.082;17.016;2023-05-21T15:28:16;16;15;
56175;PMS5003;63065;51.082;17.016;2023-05-21T15:30:41;12;11;
56175;PMS5003;63065;51.082;17.016;2023-05-21T15:33:07;12;11;
56175;PMS5003;63065;51.082;17.016;2023-05-21T15:35:33;14;14;
56175;PMS5003;63065;51.082;17.016;2023-05-21T15:37:58;14;14;
56175;PMS5003;63065;51.082;17.016;2023-05-21T15:40:23;14;13;
56175;PMS5003;63065;51.082;17.016;2023-05-21T15:42:49;12;12;
56175;PMS5003;63065;51.082;17.016;2023-05-21T15:45:15;11;11;
56175;PMS5003;63065;51.082;17.016;2023-05-21T15:47:40;11;11;
56175;PMS5003;63065;51.082;17.016;2023-05-21T15:50:07;12;12;
56175;PMS5003;63065;51.082;17.016;2023-05-21T15:52:32;11;11;
56175;PMS5003;63065;51.082;17.016;2023-05-21T15:54:57;11;11;
56175;PMS5003;63065;51.082;17.016;2023-05-21T15:57:23;11;11;
56175;PMS5003;63065;51.082;17.016;2023-05-21T15:59:49;10;10;
56175;PMS5003;63065;51.082;17.016;2023-05-21T16:02:14;12;10;
56175;PMS5003;63065;51.082;17.016;2023-05-21T16:04:40;11;11;
56175;PMS5003;63065;51.082;17.016;2023-05-21T16:07:06;9;9;